createdAt,value
2023-04-28T00:01:34.647Z,73.15
2023-04-28T00:04:02.169Z,72.90
2023-04-28T00:06:30.887Z,73.54
2023-04-28T00:08:57.496Z,72.66
2023-04-28T00:11:23.985Z,73.03
2023-04-28T00:13:50.592Z,72.99
2023-04-28T00:16:17.394Z,73.55
2023-04-28T00:18:44.263Z,75.16
2023-04-28T00:21:10.773Z,74.38
2023-04-28T00:23:37.321Z,75.03
2023-04-28T00:26:03.985Z,75.48
2023-04-28T00:28:34.670Z,75.93
2023-04-28T00:31:02.456Z,75.10
2023-04-28T00:33:28.944Z,74.82
2023-04-28T00:36:01.875Z,72.91
2023-04-28T00:38:28.611Z,72.42
2023-04-28T00:40:55.263Z,72.18
2023-04-28T00:43:21.888Z,72.03
2023-04-28T00:45:52.133Z,71.65
2023-04-28T00:48:19.437Z,72.72
2023-04-28T00:50:47.694Z,72.60
2023-04-28T00:53:14.767Z,72.22
2023-04-28T00:55:41.272Z,71.84
2023-04-28T00:58:08.214Z,70.88
2023-04-28T01:00:35.103Z,72.37
2023-04-28T01:03:02.080Z,72.32
2023-04-28T01:05:30.658Z,72.12
2023-04-28T01:07:57.240Z,71.78
2023-04-28T01:10:23.788Z,71.97
2023-04-28T01:12:50.344Z,72.17
2023-04-28T01:15:19.090Z,71.93
2023-04-28T01:17:48.669Z,72.01
2023-04-28T01:20:15.586Z,72.90
2023-04-28T01:22:42.150Z,73.17
2023-04-28T01:25:08.944Z,72.59
2023-04-28T01:27:35.722Z,73.31
2023-04-28T01:30:02.367Z,73.63
2023-04-28T01:32:29.043Z,73.69
2023-04-28T01:34:55.663Z,74.06
2023-04-28T01:37:22.209Z,73.01
2023-04-28T01:39:48.784Z,72.18
2023-04-28T01:42:15.364Z,71.55
2023-04-28T01:44:41.918Z,72.74
2023-04-28T01:47:08.460Z,72.85
2023-04-28T01:49:34.969Z,72.72
2023-04-28T01:52:01.501Z,72.71
2023-04-28T01:54:28.276Z,73.25
2023-04-28T01:56:54.847Z,73.89
2023-04-28T01:59:21.382Z,73.41
2023-04-28T02:01:47.964Z,74.08
2023-04-28T02:04:14.632Z,73.88
2023-04-28T02:06:41.858Z,73.53
2023-04-28T02:09:08.361Z,73.98
2023-04-28T02:11:34.905Z,73.88
2023-04-28T02:14:01.555Z,73.69
2023-04-28T02:16:28.198Z,73.17
2023-04-28T02:18:54.836Z,72.77
2023-04-28T02:21:21.423Z,74.00
2023-04-28T02:23:48.463Z,73.39
2023-04-28T02:26:15.176Z,73.84
2023-04-28T02:28:41.762Z,73.89
2023-04-28T02:31:10.160Z,74.43
2023-04-28T02:33:37.784Z,73.91
2023-04-28T02:36:06.211Z,73.93
2023-04-28T02:38:32.957Z,74.69
2023-04-28T02:41:05.379Z,74.68
2023-04-28T02:43:32.659Z,74.70
2023-04-28T02:45:59.480Z,74.70
2023-04-28T02:48:26.453Z,74.65
2023-04-28T02:50:53.178Z,73.89
2023-04-28T02:53:20.887Z,72.90
2023-04-28T02:55:47.579Z,72.25
2023-04-28T02:58:14.439Z,72.05
2023-04-28T03:00:41.125Z,72.17
2023-04-28T03:03:07.765Z,71.44
2023-04-28T03:05:34.513Z,71.76
2023-04-28T03:08:01.105Z,71.81
2023-04-28T03:10:27.826Z,71.42
2023-04-28T03:12:54.364Z,71.13
2023-04-28T03:15:21.131Z,71.33
2023-04-28T03:17:47.739Z,72.21
2023-04-28T03:20:14.343Z,72.35
2023-04-28T03:22:40.913Z,71.75
2023-04-28T03:25:07.820Z,72.24
2023-04-28T03:27:34.391Z,70.56
2023-04-28T03:30:00.941Z,70.64
2023-04-28T03:32:27.526Z,68.88
2023-04-28T03:34:54.061Z,69.41
2023-04-28T03:37:20.580Z,70.93
2023-04-28T03:39:47.105Z,70.18
2023-04-28T03:42:13.761Z,69.57
2023-04-28T03:44:40.474Z,69.74
2023-04-28T03:47:06.989Z,69.37
2023-04-28T03:49:33.507Z,68.99
2023-04-28T03:52:00.081Z,68.82
2023-04-28T03:55:55.687Z,69.29
2023-04-28T03:57:39.853Z,69.46
2023-04-28T04:00:07.796Z,68.91
2023-04-28T04:02:34.605Z,67.61
2023-04-28T04:05:01.482Z,67.08
2023-04-28T04:07:28.189Z,67.28
2023-04-28T04:09:54.674Z,66.22
2023-04-28T04:12:21.188Z,65.85
2023-04-28T04:14:47.701Z,65.87
2023-04-28T04:17:14.203Z,66.24
2023-04-28T04:19:41.441Z,64.83
2023-04-28T04:22:07.940Z,64.13
2023-04-28T04:24:34.629Z,64.28
2023-04-28T04:27:01.215Z,63.58
2023-04-28T04:29:27.762Z,63.90
2023-04-28T04:31:54.327Z,63.08
2023-04-28T04:34:20.859Z,64.54
2023-04-28T04:36:47.417Z,63.19
2023-04-28T04:39:13.929Z,62.64
2023-04-28T04:41:41.651Z,63.44
2023-04-28T04:44:08.210Z,62.75
2023-04-28T04:46:34.732Z,62.80
2023-04-28T04:49:01.300Z,62.33
2023-04-28T04:51:28.137Z,62.53
2023-04-28T04:53:55.329Z,61.92
2023-04-28T04:56:21.847Z,62.94
2023-04-28T04:58:48.383Z,62.91
2023-04-28T05:01:14.923Z,62.85
2023-04-28T05:03:41.520Z,62.57
2023-04-28T05:06:08.099Z,64.13
2023-04-28T05:08:34.673Z,62.58
2023-04-28T05:11:01.354Z,63.83
2023-04-28T05:13:27.851Z,63.45
2023-04-28T05:15:54.467Z,64.05
2023-04-28T05:18:21.535Z,63.12
2023-04-28T05:20:48.556Z,63.21
2023-04-28T05:23:15.075Z,63.46
2023-04-28T05:25:41.730Z,63.56
2023-04-28T05:28:10.451Z,62.64
2023-04-28T05:30:37.007Z,63.70
2023-04-28T05:33:03.831Z,62.61
2023-04-28T05:35:31.632Z,62.25
2023-04-28T05:37:59.317Z,62.09
2023-04-28T05:40:26.459Z,62.62
2023-04-28T05:42:53.240Z,63.19
2023-04-28T05:45:19.952Z,62.70
2023-04-28T05:47:46.547Z,62.76
2023-04-28T05:50:13.191Z,63.30
2023-04-28T05:52:39.724Z,63.06
2023-04-28T05:55:06.738Z,62.80
2023-04-28T05:57:41.773Z,64.00
2023-04-28T06:00:16.648Z,62.63
2023-04-28T06:02:43.341Z,62.29
2023-04-28T06:05:10.763Z,61.02
2023-04-28T06:07:39.332Z,60.40
2023-04-28T06:10:06.540Z,60.49
2023-04-28T06:12:33.115Z,58.70
2023-04-28T06:14:59.647Z,57.01
2023-04-28T06:17:26.294Z,58.22
2023-04-28T06:19:54.480Z,56.88
2023-04-28T06:22:21.054Z,56.08
2023-04-28T06:24:49.634Z,56.25
2023-04-28T06:27:16.208Z,54.81
2023-04-28T06:29:42.747Z,55.30
2023-04-28T06:32:09.604Z,52.56
2023-04-28T06:34:37.619Z,53.32
2023-04-28T06:37:04.289Z,53.30
2023-04-28T06:39:30.825Z,53.03
2023-04-28T06:41:57.777Z,52.09
2023-04-28T06:44:24.683Z,51.37
2023-04-28T06:46:51.425Z,52.72
2023-04-28T06:49:18.144Z,54.01
2023-04-28T06:51:45.456Z,52.35
2023-04-28T06:54:12.008Z,52.43
2023-04-28T06:56:38.537Z,52.10
2023-04-28T06:59:05.283Z,52.73
2023-04-28T07:01:31.900Z,52.26
2023-04-28T07:03:58.579Z,52.60
2023-04-28T07:06:27.456Z,50.92
2023-04-28T07:08:54.196Z,50.45
2023-04-28T07:11:20.777Z,51.00
2023-04-28T07:13:49.369Z,51.84
2023-04-28T07:16:16.156Z,50.62
2023-04-28T07:18:42.738Z,49.52
2023-04-28T07:21:11.901Z,48.72
2023-04-28T07:23:38.947Z,48.46
2023-04-28T07:26:05.558Z,49.18
2023-04-28T07:28:32.248Z,49.32
2023-04-28T07:30:58.787Z,48.88
2023-04-28T07:33:25.440Z,48.40
2023-04-28T07:35:53.104Z,47.86
2023-04-28T07:38:20.549Z,47.38
2023-04-28T07:40:47.602Z,49.01
2023-04-28T07:43:14.524Z,47.40
2023-04-28T07:45:41.506Z,48.16
2023-04-28T07:48:08.508Z,47.59
2023-04-28T07:50:35.097Z,47.48
2023-04-28T07:53:01.691Z,48.20
2023-04-28T07:55:28.876Z,48.03
2023-04-28T07:57:55.452Z,47.82
2023-04-28T08:00:22.097Z,46.74
2023-04-28T08:02:48.783Z,46.74
2023-04-28T08:05:17.166Z,46.17
2023-04-28T08:07:43.996Z,46.61
2023-04-28T08:10:11.743Z,46.45
2023-04-28T08:12:39.225Z,47.00
2023-04-28T08:15:06.363Z,46.03
2023-04-28T08:17:32.940Z,46.39
2023-04-28T08:19:59.478Z,45.15
2023-04-28T08:22:26.056Z,45.21
2023-04-28T08:24:52.667Z,44.41
2023-04-28T08:27:19.396Z,45.16
2023-04-28T08:29:45.943Z,42.53
2023-04-28T08:32:12.512Z,43.14
2023-04-28T08:34:39.036Z,42.57
2023-04-28T08:37:06.928Z,43.31
2023-04-28T08:39:35.412Z,41.59
2023-04-28T08:42:05.736Z,40.73
2023-04-28T08:44:42.080Z,40.91
2023-04-28T08:47:15.093Z,42.01
2023-04-28T08:49:42.168Z,43.24
2023-04-28T08:52:13.626Z,41.07
2023-04-28T08:54:41.560Z,41.07
2023-04-28T08:57:11.595Z,41.48
2023-04-28T08:59:41.706Z,40.95
2023-04-28T09:02:09.192Z,39.63
2023-04-28T09:04:36.426Z,40.94
2023-04-28T09:07:03.167Z,40.70
2023-04-28T09:09:34.721Z,40.71
2023-04-28T09:12:04.922Z,39.90
2023-04-28T09:14:35.204Z,39.38
2023-04-28T09:17:03.186Z,39.69
2023-04-28T09:19:34.735Z,40.10
2023-04-28T09:22:07.726Z,40.77
2023-04-28T09:24:43.234Z,41.00
2023-04-28T09:27:12.005Z,39.41
2023-04-28T09:29:39.519Z,38.81
2023-04-28T09:32:17.173Z,38.98
2023-04-28T09:34:51.751Z,39.49
2023-04-28T09:37:21.095Z,38.43
2023-04-28T09:39:50.654Z,38.71
2023-04-28T09:42:42.990Z,38.24
2023-04-28T09:45:14.229Z,37.40
2023-04-28T09:47:43.643Z,38.72
2023-04-28T09:50:15.179Z,36.84
2023-04-28T09:52:44.295Z,38.40
2023-04-28T09:55:12.153Z,37.30
2023-04-28T09:57:39.758Z,37.26
2023-04-28T10:00:09.215Z,38.42
2023-04-28T10:05:09.695Z,38.85
2023-04-28T10:07:37.342Z,38.88
2023-04-28T10:10:04.496Z,39.00
2023-04-28T10:12:32.649Z,39.40
2023-04-28T10:15:00.234Z,39.55
2023-04-28T10:17:29.373Z,40.46
2023-04-28T10:19:57.219Z,43.46
2023-04-28T10:22:48.202Z,46.43
2023-04-28T10:25:25.372Z,48.28
2023-04-28T10:27:53.145Z,49.21
2023-04-28T10:30:28.010Z,49.13
2023-04-28T10:33:25.402Z,51.04
2023-04-28T10:35:52.292Z,51.42
2023-04-28T10:38:23.283Z,50.16
2023-04-28T10:40:51.850Z,50.96
2023-04-28T10:43:31.225Z,54.63
2023-04-28T10:46:00.693Z,56.47
2023-04-28T10:48:30.829Z,57.11
2023-04-28T10:51:03.482Z,59.29
2023-04-28T10:53:45.259Z,61.41
2023-04-28T10:56:15.432Z,61.53
2023-04-28T10:58:43.657Z,61.21
2023-04-28T11:01:19.559Z,61.56
2023-04-28T11:03:46.789Z,61.40
2023-04-28T11:06:23.711Z,62.16
2023-04-28T11:08:50.309Z,61.23
2023-04-28T11:11:21.374Z,59.90
2023-04-28T11:13:48.945Z,59.38
2023-04-28T11:16:17.771Z,60.78
2023-04-28T11:18:56.682Z,61.39
2023-04-28T11:21:25.012Z,58.90
2023-04-28T11:23:52.464Z,59.21
2023-04-28T11:26:19.980Z,58.08
2023-04-28T11:28:51.401Z,58.74
2023-04-28T11:31:22.608Z,60.29
2023-04-28T11:34:01.166Z,62.19
2023-04-28T11:36:39.004Z,64.83
2023-04-28T11:39:08.204Z,66.12
2023-04-28T11:41:35.594Z,66.83
2023-04-28T11:44:16.695Z,66.06
2023-04-28T11:46:56.170Z,67.11
2023-04-28T11:49:31.046Z,67.09
2023-04-28T11:52:00.463Z,67.41
2023-04-28T11:54:29.157Z,63.17
2023-04-28T11:56:57.447Z,64.30
2023-04-28T11:59:29.349Z,65.21
2023-04-28T12:02:01.731Z,60.94
2023-04-28T12:04:29.822Z,61.00
2023-04-28T12:07:02.107Z,59.79
2023-04-28T12:09:28.955Z,60.35
2023-04-28T12:11:57.533Z,60.19
2023-04-28T12:14:24.927Z,60.46
2023-04-28T12:16:52.273Z,62.21
2023-04-28T12:19:20.181Z,62.19
2023-04-28T12:22:06.364Z,62.64
2023-04-28T12:24:33.383Z,62.07
2023-04-28T12:27:21.975Z,60.48
2023-04-28T12:29:48.864Z,58.51
2023-04-28T12:32:15.960Z,57.40
2023-04-28T12:34:44.473Z,55.19
2023-04-28T12:37:12.270Z,54.05
2023-04-28T12:39:40.576Z,55.87
2023-04-28T12:42:07.519Z,54.40
2023-04-28T12:44:38.395Z,55.57
2023-04-28T12:47:07.364Z,58.66
2023-04-28T12:49:35.800Z,60.22
2023-04-28T12:52:03.500Z,60.17
2023-04-28T12:54:30.550Z,59.32
2023-04-28T12:56:57.150Z,59.97
2023-04-28T12:59:24.002Z,60.06
2023-04-28T13:01:51.227Z,59.01
2023-04-28T13:04:19.296Z,59.67
2023-04-28T13:06:46.521Z,60.49
2023-04-28T13:09:15.312Z,61.70
2023-04-28T13:11:42.647Z,61.34
2023-04-28T13:14:09.265Z,62.90
2023-04-28T13:16:36.355Z,62.51
2023-04-28T13:19:04.343Z,63.89
2023-04-28T13:21:31.904Z,62.37
2023-04-28T13:23:58.658Z,63.30
2023-04-28T13:26:26.882Z,65.17
2023-04-28T13:28:53.538Z,65.75
2023-04-28T13:31:20.229Z,66.95
2023-04-28T13:33:47.173Z,68.13
2023-04-28T13:36:13.780Z,67.90
2023-04-28T13:38:40.443Z,66.42
2023-04-28T13:41:07.709Z,67.22
2023-04-28T13:43:34.326Z,70.31
2023-04-28T13:46:01.715Z,66.69
2023-04-28T13:48:29.314Z,65.92
2023-04-28T13:50:55.984Z,65.73
2023-04-28T13:53:22.782Z,67.53
2023-04-28T13:55:51.297Z,67.82
2023-04-28T13:58:17.850Z,69.81
2023-04-28T14:00:44.463Z,68.36
2023-04-28T14:03:11.693Z,69.50
2023-04-28T14:05:49.954Z,69.39
2023-04-28T14:08:27.097Z,69.48
2023-04-28T14:11:14.817Z,68.80
2023-04-28T14:13:41.398Z,69.45
2023-04-28T14:16:08.862Z,69.98
2023-04-28T14:18:35.776Z,72.04
2023-04-28T14:21:03.252Z,68.91
2023-04-28T14:23:29.948Z,69.18
2023-04-28T14:25:58.000Z,68.24
2023-04-28T14:28:24.614Z,68.63
2023-04-28T14:30:51.495Z,69.26
2023-04-28T14:33:18.145Z,68.45
2023-04-28T14:35:44.769Z,68.93
2023-04-28T14:38:13.400Z,67.19
2023-04-28T14:40:39.976Z,66.87
2023-04-28T14:43:06.795Z,68.03
2023-04-28T14:45:33.421Z,67.94
2023-04-28T14:48:00.134Z,65.70
2023-04-28T14:50:26.798Z,68.18
2023-04-28T14:52:53.343Z,68.01
2023-04-28T14:55:20.086Z,68.11
2023-04-28T14:57:48.215Z,68.12
2023-04-28T15:00:15.459Z,69.64
2023-04-28T15:02:42.561Z,67.40
2023-04-28T15:05:09.763Z,68.27
2023-04-28T15:07:36.494Z,68.29
2023-04-28T15:10:03.186Z,65.71
2023-04-28T15:12:30.552Z,64.20
2023-04-28T15:14:57.631Z,64.35
2023-04-28T15:17:24.547Z,67.29
2023-04-28T15:19:51.590Z,66.05
2023-04-28T15:22:18.487Z,66.40
2023-04-28T15:24:45.110Z,64.34
2023-04-28T15:27:11.743Z,65.48
2023-04-28T15:29:38.717Z,66.03
2023-04-28T15:32:05.650Z,62.83
2023-04-28T15:34:33.854Z,63.23
2023-04-28T15:37:01.422Z,65.51
2023-04-28T15:39:31.233Z,63.08
2023-04-28T15:41:58.791Z,63.26
2023-04-28T15:44:25.325Z,62.09
2023-04-28T15:46:52.483Z,63.73
2023-04-28T15:49:19.273Z,64.30
2023-04-28T15:51:45.869Z,64.56
2023-04-28T15:54:12.464Z,63.97
2023-04-28T15:56:39.074Z,62.88
2023-04-28T15:59:05.625Z,64.76
2023-04-28T16:01:32.406Z,64.46
2023-04-28T16:03:59.191Z,64.68
2023-04-28T16:06:26.001Z,65.92
2023-04-28T16:08:52.707Z,65.67
2023-04-28T16:11:20.452Z,64.65
2023-04-28T16:13:47.316Z,63.69
2023-04-28T16:16:14.248Z,65.28
2023-04-28T16:18:40.977Z,65.71
2023-04-28T16:21:07.720Z,65.95
2023-04-28T16:23:34.710Z,67.83
2023-04-28T16:26:01.491Z,67.91
2023-04-28T16:28:28.162Z,69.39
2023-04-28T16:30:54.734Z,69.78
2023-04-28T16:33:21.282Z,70.20
2023-04-28T16:36:12.839Z,70.71
2023-04-28T16:38:39.635Z,71.27
2023-04-28T16:41:06.352Z,72.37
2023-04-28T16:43:33.069Z,69.80
2023-04-28T16:46:00.098Z,70.89
2023-04-28T16:48:27.881Z,70.73
2023-04-28T16:50:54.447Z,70.09
2023-04-28T16:53:21.019Z,69.64
2023-04-28T16:55:47.822Z,68.82
2023-04-28T16:58:17.501Z,69.62
2023-04-28T17:00:44.078Z,68.91
2023-04-28T17:03:11.571Z,68.25
2023-04-28T17:05:38.318Z,67.79
2023-04-28T17:08:04.964Z,70.63
2023-04-28T17:10:32.632Z,67.94
2023-04-28T17:12:59.381Z,66.62
2023-04-28T17:15:27.190Z,66.44
2023-04-28T17:17:53.956Z,66.41
2023-04-28T17:20:21.485Z,66.34
2023-04-28T17:22:48.748Z,66.53
2023-04-28T17:25:16.678Z,66.97
2023-04-28T17:27:43.600Z,67.22
2023-04-28T17:30:14.397Z,66.35
2023-04-28T17:32:41.446Z,67.32
2023-04-28T17:35:09.000Z,67.05
2023-04-28T17:37:37.134Z,66.80
2023-04-28T17:40:04.666Z,66.58
2023-04-28T17:42:34.011Z,66.06
2023-04-28T17:45:00.575Z,66.17
2023-04-28T17:47:27.755Z,66.63
2023-04-28T17:49:54.706Z,67.61
2023-04-28T17:52:21.260Z,66.59
2023-04-28T17:54:48.144Z,67.35
2023-04-28T17:57:14.902Z,66.74
2023-04-28T17:59:42.628Z,67.90
2023-04-28T18:02:10.198Z,68.11
2023-04-28T18:04:37.718Z,69.60
2023-04-28T18:07:04.350Z,68.82
2023-04-28T18:09:31.769Z,68.74
2023-04-28T18:11:58.434Z,68.32
2023-04-28T18:14:25.642Z,68.49
2023-04-28T18:16:52.316Z,69.10
2023-04-28T18:19:18.911Z,69.47
2023-04-28T18:21:45.700Z,69.13
2023-04-28T18:24:12.232Z,69.03
2023-04-28T18:26:38.928Z,68.47
2023-04-28T18:29:05.473Z,68.75
2023-04-28T18:31:32.169Z,69.00
2023-04-28T18:33:59.528Z,69.74
2023-04-28T18:36:26.131Z,69.73
2023-04-28T18:38:52.715Z,69.22
2023-04-28T18:41:19.348Z,68.81
2023-04-28T18:43:46.433Z,69.23
2023-04-28T18:46:13.680Z,68.05
2023-04-28T18:48:40.491Z,68.12
2023-04-28T18:51:07.241Z,68.19
2023-04-28T18:53:33.758Z,68.82
2023-04-28T18:56:00.413Z,69.39
2023-04-28T18:58:27.887Z,69.66
2023-04-28T19:00:54.575Z,69.50
2023-04-28T19:03:21.287Z,69.45
2023-04-28T19:05:48.159Z,70.43
2023-04-28T19:08:14.755Z,69.69
2023-04-28T19:10:41.525Z,69.47
2023-04-28T19:13:08.488Z,69.98
2023-04-28T19:15:35.077Z,70.38
2023-04-28T19:18:02.130Z,69.98
2023-04-28T19:20:29.046Z,71.11
2023-04-28T19:22:56.633Z,70.59
2023-04-28T19:25:23.385Z,70.05
2023-04-28T19:27:49.961Z,70.93
2023-04-28T19:30:16.829Z,71.88
2023-04-28T19:32:43.646Z,72.10
2023-04-28T19:35:10.319Z,71.43
2023-04-28T19:37:37.071Z,70.53
2023-04-28T19:40:07.405Z,70.46
2023-04-28T19:42:35.017Z,70.30
2023-04-28T19:45:02.453Z,70.36
2023-04-28T19:47:33.863Z,70.59
2023-04-28T19:50:00.815Z,72.94
2023-04-28T19:52:27.959Z,73.10
2023-04-28T19:54:54.882Z,72.81
2023-04-28T19:57:21.924Z,73.67
2023-04-28T19:59:49.650Z,73.84
2023-04-28T20:02:17.216Z,73.26
2023-04-28T20:04:43.977Z,73.49
2023-04-28T20:07:10.927Z,72.78
2023-04-28T20:09:38.676Z,72.57
2023-04-28T20:12:09.436Z,72.47
2023-04-28T20:14:37.161Z,71.68
2023-04-28T20:17:04.628Z,72.12
2023-04-28T20:19:31.620Z,72.40
2023-04-28T20:21:58.280Z,72.25
2023-04-28T20:24:24.870Z,72.36
2023-04-28T20:26:54.085Z,72.48
2023-04-28T20:29:20.552Z,72.48
2023-04-28T20:31:47.326Z,72.32
2023-04-28T20:34:14.408Z,72.80
2023-04-28T20:36:42.801Z,72.66
2023-04-28T20:39:11.719Z,73.53
2023-04-28T20:41:41.015Z,74.53
2023-04-28T20:44:08.009Z,73.99
2023-04-28T20:46:35.447Z,75.11
2023-04-28T20:49:02.668Z,74.35
2023-04-28T20:51:30.177Z,74.82
2023-04-28T20:53:57.658Z,75.35
2023-04-28T20:56:24.431Z,77.03
2023-04-28T20:58:50.982Z,77.01
2023-04-28T21:01:17.660Z,76.76
2023-04-28T21:03:44.501Z,77.04
2023-04-28T21:06:11.461Z,77.34
2023-04-28T21:08:38.635Z,76.58
2023-04-28T21:11:11.399Z,76.93
2023-04-28T21:13:38.021Z,75.85
2023-04-28T21:16:05.038Z,76.35
2023-04-28T21:18:31.721Z,75.42
2023-04-28T21:20:58.245Z,75.85
2023-04-28T21:23:24.775Z,75.52
2023-04-28T21:25:51.353Z,75.38
2023-04-28T21:28:17.969Z,75.95
2023-04-28T21:30:44.482Z,75.61
2023-04-28T21:33:11.276Z,76.51
2023-04-28T21:35:38.520Z,75.95
2023-04-28T21:38:05.037Z,76.87
2023-04-28T21:40:31.548Z,76.81
2023-04-28T21:42:58.078Z,77.21
2023-04-28T21:45:24.630Z,78.03
2023-04-28T21:47:51.220Z,78.05
2023-04-28T21:50:17.801Z,77.11
2023-04-28T21:52:44.602Z,78.38
2023-04-28T21:55:11.343Z,77.34
2023-04-28T21:57:37.935Z,77.30
2023-04-28T22:00:06.339Z,77.33
2023-04-28T22:02:32.987Z,77.75
2023-04-28T22:04:59.761Z,76.56
2023-04-28T22:07:28.313Z,77.12
2023-04-28T22:09:54.941Z,77.13
2023-04-28T22:12:21.493Z,77.64
2023-04-28T22:14:48.140Z,77.35
2023-04-28T22:17:15.214Z,77.37
2023-04-28T22:19:41.892Z,77.28
2023-04-28T22:22:08.956Z,76.81
2023-04-28T22:24:35.566Z,77.01
2023-04-28T22:27:02.110Z,76.86
2023-04-28T22:29:28.769Z,76.58
2023-04-28T22:31:55.345Z,76.79
2023-04-28T22:34:22.539Z,76.86
2023-04-28T22:36:49.428Z,77.22
2023-04-28T22:39:15.974Z,77.82
2023-04-28T22:41:42.513Z,77.29
2023-04-28T22:44:09.065Z,78.59
2023-04-28T22:46:35.662Z,77.48
2023-04-28T22:49:03.119Z,79.07
2023-04-28T22:51:33.218Z,79.49
2023-04-28T22:53:59.740Z,80.28
2023-04-28T22:56:26.373Z,79.90
2023-04-28T22:58:53.110Z,79.09
2023-04-28T23:01:19.842Z,81.54
2023-04-28T23:03:47.327Z,84.08
2023-04-28T23:06:14.022Z,85.45
2023-04-28T23:08:40.600Z,86.25
2023-04-28T23:11:07.233Z,87.18
2023-04-28T23:13:33.789Z,86.92
2023-04-28T23:16:00.554Z,87.73
2023-04-28T23:18:31.596Z,88.39
2023-04-28T23:20:58.349Z,88.83
2023-04-28T23:23:25.021Z,88.58
2023-04-28T23:25:52.020Z,88.67
2023-04-28T23:28:18.960Z,89.51
2023-04-28T23:30:45.515Z,89.18
2023-04-28T23:33:12.090Z,89.50
2023-04-28T23:35:38.666Z,89.27
2023-04-28T23:38:05.191Z,90.04
2023-04-28T23:40:31.828Z,90.40
2023-04-28T23:42:58.397Z,90.43
2023-04-28T23:45:25.513Z,90.68
2023-04-28T23:47:53.343Z,90.97
2023-04-28T23:50:19.984Z,91.70
2023-04-28T23:52:47.201Z,91.94
2023-04-28T23:55:13.783Z,90.64
2023-04-28T23:57:40.377Z,90.04
